Time;durP1;ratioP1;P1;durP2;ratioP2;P2;SDS_P1;SDS_P2;PMS_P1;PMS_P2;Temp;Humidity;BMP_temperature;BMP_pressure;BME280_temperature;BME280_humidity;BME280_pressure;Samples;Min_cycle;Max_cycle;Signal;HPM_P1;HPM_P2
2021/01/01 00:01:47;;;;;;;5.80;3.28;;;2.90;99.90;;;;;;6184271;23;20031;-92
2021/01/01 00:04:14;;;;;;;6.60;4.28;;;2.90;99.90;;;;;;6184577;23;20013;-92
2021/01/01 00:06:49;;;;;;;6.03;4.05;;;3.00;99.90;;;;;;6183594;23;20037;-88
2021/01/01 00:09:18;;;;;;;8.70;4.88;;;3.00;99.90;;;;;;6183392;23;20097;-93
2021/01/01 00:11:50;;;;;;;;;;;3.00;99.90;;;;;;6183877;23;20017;-94
2021/01/01 00:14:18;;;;;;;7.00;4.93;;;3.00;99.90;;;;;;6185972;23;20253;-94
2021/01/01 00:16:46;;;;;;;9.07;5.43;;;3.00;99.90;;;;;;6186439;23;20449;-94
2021/01/01 00:19:13;;;;;;;7.22;5.18;;;3.00;99.90;;;;;;6186440;23;20020;-94
2021/01/01 00:21:40;;;;;;;7.97;6.15;;;3.10;99.90;;;;;;6187446;23;20017;-93
2021/01/01 00:24:08;;;;;;;8.75;5.72;;;3.10;99.90;;;;;;6186149;23;20431;-94
2021/01/01 00:26:36;;;;;;;6.88;5.53;;;3.10;99.90;;;;;;6185778;23;20118;-94
2021/01/01 00:29:04;;;;;;;6.82;5.97;;;3.10;99.90;;;;;;6185151;23;20036;-93
2021/01/01 00:31:33;;;;;;;8.88;6.15;;;3.10;99.90;;;;;;6188481;23;20036;-92
2021/01/01 00:34:01;;;;;;;10.70;6.13;;;3.10;99.90;;;;;;6188144;23;20017;-93
2021/01/01 00:36:29;;;;;;;11.20;6.70;;;3.10;99.90;;;;;;6187103;23;20301;-93
2021/01/01 00:38:58;;;;;;;10.95;6.45;;;3.10;99.90;;;;;;6186262;23;20017;-93
2021/01/01 00:41:30;;;;;;;10.80;6.25;;;3.10;99.90;;;;;;6185360;23;20021;-93
2021/01/01 00:43:58;;;;;;;10.90;6.68;;;3.10;99.90;;;;;;6187804;23;20014;-93
2021/01/01 00:46:28;;;;;;;7.55;5.72;;;3.10;99.90;;;;;;6188074;23;20437;-93
2021/01/01 00:48:58;;;;;;;8.02;5.85;;;3.10;99.90;;;;;;6188407;23;20433;-93
2021/01/01 00:51:28;;;;;;;8.43;5.88;;;3.10;99.90;;;;;;6188453;23;20017;-93
2021/01/01 00:53:56;;;;;;;7.72;6.30;;;3.10;99.90;;;;;;6187970;23;20332;-93
2021/01/01 00:56:25;;;;;;;9.82;6.20;;;3.10;99.90;;;;;;6187630;23;20417;-93
2021/01/01 00:58:54;;;;;;;8.63;6.53;;;3.10;99.90;;;;;;6187674;23;20445;-92
2021/01/01 01:01:26;;;;;;;13.57;7.57;;;3.10;99.90;;;;;;6187707;23;20102;-93
2021/01/01 01:03:56;;;;;;;7.82;6.05;;;3.10;99.90;;;;;;6188261;23;20041;-93
2021/01/01 01:06:25;;;;;;;10.32;7.10;;;3.10;99.90;;;;;;6188357;23;20076;-94
2021/01/01 01:08:54;;;;;;;10.48;6.90;;;3.10;99.90;;;;;;6187963;23;20017;-92
2021/01/01 01:11:26;;;;;;;9.10;6.78;;;3.10;99.90;;;;;;6187182;23;20020;-93
2021/01/01 01:13:55;;;;;;;8.90;6.93;;;3.20;99.90;;;;;;6186815;23;20131;-93
2021/01/01 01:16:27;;;;;;;9.68;6.63;;;3.20;99.90;;;;;;6187520;23;20017;-93
2021/01/01 01:18:56;;;;;;;8.43;6.43;;;3.10;99.90;;;;;;6188173;23;20017;-93
2021/01/01 01:21:23;;;;;;;7.72;6.30;;;3.20;99.90;;;;;;6187807;23;20032;-93
2021/01/01 01:23:55;;;;;;;12.20;7.00;;;3.20;99.90;;;;;;6187826;23;20425;-93
2021/01/01 01:26:25;;;;;;;9.45;6.25;;;3.20;99.90;;;;;;6187548;23;20028;-93
2021/01/01 01:28:56;;;;;;;9.15;6.50;;;3.20;99.90;;;;;;6187880;23;20013;-92
2021/01/01 01:31:25;;;;;;;9.40;5.88;;;3.20;99.90;;;;;;6187315;23;20021;-92
2021/01/01 01:33:52;;;;;;;12.32;6.03;;;3.20;99.90;;;;;;6187465;23;20080;-93
2021/01/01 01:36:21;;;;;;;11.63;6.95;;;3.20;99.90;;;;;;6186819;23;20345;-93
2021/01/01 01:38:50;;;;;;;9.15;5.97;;;3.30;99.90;;;;;;6186758;23;20020;-93
2021/01/01 01:41:19;;;;;;;10.50;6.65;;;3.20;99.90;;;;;;6186279;23;20013;-92
2021/01/01 01:43:47;;;;;;;7.47;6.47;;;3.20;99.90;;;;;;6187258;23;20037;-93
2021/01/01 01:46:16;;;;;;;10.70;6.55;;;3.20;99.90;;;;;;6187308;23;20084;-93
2021/01/01 01:48:47;;;;;;;10.15;6.57;;;3.30;99.90;;;;;;6187426;23;20076;-92
2021/01/01 01:51:18;;;;;;;8.98;7.28;;;3.20;99.90;;;;;;6186981;23;20017;-92
2021/01/01 01:53:46;;;;;;;8.95;6.47;;;3.30;99.90;;;;;;6186952;23;20340;-92
2021/01/01 01:56:18;;;;;;;9.40;7.63;;;3.20;99.90;;;;;;6187290;23;20021;-93
2021/01/01 01:58:48;;;;;;;10.10;6.72;;;3.30;99.90;;;;;;6187104;23;20437;-92
2021/01/01 02:01:15;;;;;;;;;;;3.20;99.90;;;;;;6187465;23;20024;-93
2021/01/01 02:03:43;;;;;;;7.43;5.30;;;3.20;99.90;;;;;;6187945;23;19923;-93
2021/01/01 02:06:11;;;;;;;8.60;5.75;;;3.20;99.90;;;;;;6187997;23;20024;-92
2021/01/01 02:08:39;;;;;;;8.98;5.45;;;3.20;99.90;;;;;;6187073;23;20330;-92
2021/01/01 02:11:07;;;;;;;5.72;5.13;;;3.20;99.90;;;;;;6187079;23;20051;-92
2021/01/01 02:13:35;;;;;;;6.68;4.60;;;3.20;99.90;;;;;;6187406;23;20043;-93
2021/01/01 02:16:04;;;;;;;5.93;4.70;;;3.20;99.90;;;;;;6186814;23;20213;-93
2021/01/01 02:18:45;;;;;;;5.68;4.57;;;3.20;99.90;;;;;;6187824;23;20047;-93
2021/01/01 02:21:17;;;;;;;6.07;4.60;;;3.10;99.90;;;;;;6187201;23;20047;-93
2021/01/01 02:23:46;;;;;;;7.82;4.57;;;3.20;99.90;;;;;;6186409;23;20017;-92
2021/01/01 02:26:13;;;;;;;9.10;4.63;;;3.20;99.90;;;;;;6186851;23;20340;-92
2021/01/01 02:28:42;;;;;;;5.65;4.03;;;3.10;99.90;;;;;;6187075;23;20051;-92
2021/01/01 02:31:10;;;;;;;6.57;3.67;;;3.10;99.90;;;;;;6187048;23;20021;-92
2021/01/01 02:33:41;;;;;;;5.38;3.97;;;3.10;99.90;;;;;;6187232;23;20080;-94
2021/01/01 02:36:10;;;;;;;4.75;3.63;;;3.10;99.90;;;;;;6187557;23;20366;-94
2021/01/01 02:38:42;;;;;;;5.82;3.50;;;3.10;99.90;;;;;;6196887;23;20325;-93
2021/01/01 02:41:09;;;;;;;7.90;3.42;;;3.00;99.90;;;;;;6186352;23;20016;-95
2021/01/01 02:43:37;;;;;;;6.07;2.88;;;3.00;99.90;;;;;;6162744;23;20449;-94
2021/01/01 02:46:04;;;;;;;6.15;2.72;;;3.00;99.90;;;;;;6187139;23;20467;-93
2021/01/01 02:48:33;;;;;;;;;;;3.00;99.90;;;;;;6188318;23;20020;-91
2021/01/01 02:51:01;;;;;;;7.20;2.53;;;2.90;99.90;;;;;;6186630;23;19923;-92
2021/01/01 02:53:29;;;;;;;6.85;3.13;;;2.90;99.90;;;;;;6186461;23;20048;-92
2021/01/01 02:55:56;;;;;;;6.38;2.50;;;2.90;99.90;;;;;;6186180;23;20035;-92
2021/01/01 02:58:23;;;;;;;8.15;3.42;;;2.90;99.90;;;;;;6187277;23;20452;-92
2021/01/01 03:00:51;;;;;;;7.28;3.28;;;2.90;99.90;;;;;;6186364;23;20434;-93
2021/01/01 03:03:18;;;;;;;5.72;3.47;;;2.80;99.90;;;;;;6162031;23;20021;-93
2021/01/01 03:05:47;;;;;;;8.68;3.90;;;2.90;99.90;;;;;;6161613;23;20017;-92
2021/01/01 03:08:15;;;;;;;6.65;3.15;;;2.80;99.90;;;;;;6162518;23;20095;-92
2021/01/01 03:10:42;;;;;;;8.75;3.90;;;2.80;99.90;;;;;;6161590;23;20032;-92
2021/01/01 03:13:09;;;;;;;6.72;3.78;;;2.80;99.90;;;;;;6162049;23;20024;-92
2021/01/01 03:15:37;;;;;;;9.13;3.50;;;2.80;99.90;;;;;;6162191;23;20020;-92
2021/01/01 03:18:05;;;;;;;6.57;3.17;;;2.70;99.90;;;;;;6161710;23;20014;-92
2021/01/01 03:20:33;;;;;;;5.72;3.22;;;2.70;99.90;;;;;;6161659;23;20048;-92
2021/01/01 03:23:02;;;;;;;;;;;2.60;99.90;;;;;;6162120;23;20024;-92
2021/01/01 03:25:32;;;;;;;8.18;4.07;;;2.60;99.90;;;;;;6162271;23;19917;-91
2021/01/01 03:28:00;;;;;;;;;;;2.50;99.90;;;;;;6161647;23;20023;-92
2021/01/01 03:30:29;;;;;;;7.80;3.95;;;2.50;99.90;;;;;;6163067;23;19956;-92
2021/01/01 03:32:57;;;;;;;7.63;4.22;;;2.40;99.90;;;;;;6163063;23;20429;-92
2021/01/01 03:35:26;;;;;;;6.03;4.30;;;2.40;99.90;;;;;;6162487;23;20017;-92
2021/01/01 03:37:53;;;;;;;5.85;4.35;;;2.30;99.90;;;;;;6162155;23;20262;-92
2021/01/01 03:40:22;;;;;;;10.82;5.40;;;2.30;99.90;;;;;;6162495;23;20429;-92
2021/01/01 03:42:52;;;;;;;6.57;4.68;;;2.30;99.90;;;;;;6162763;23;20013;-93
2021/01/01 03:45:21;;;;;;;8.82;5.07;;;2.30;99.90;;;;;;6162371;23;20068;-94
2021/01/01 03:47:48;;;;;;;8.30;4.80;;;2.30;99.90;;;;;;6161529;23;20021;-92
2021/01/01 03:50:19;;;;;;;6.63;4.70;;;2.20;99.90;;;;;;6161959;23;20023;-92
2021/01/01 03:52:51;;;;;;;6.90;4.75;;;2.20;99.90;;;;;;6162608;23;20040;-92
2021/01/01 03:55:19;;;;;;;7.32;4.80;;;2.20;99.90;;;;;;6161780;23;20036;-92
2021/01/01 03:57:49;;;;;;;7.82;4.80;;;2.20;99.90;;;;;;6162029;23;20043;-92
2021/01/01 04:00:19;;;;;;;8.07;5.10;;;2.20;99.90;;;;;;6161766;23;20013;-92
2021/01/01 04:02:47;;;;;;;7.00;4.65;;;2.20;99.90;;;;;;6181876;23;20032;-92
2021/01/01 04:05:14;;;;;;;9.60;5.37;;;2.20;99.90;;;;;;6186166;23;20069;-92
2021/01/01 04:07:43;;;;;;;7.03;4.88;;;2.20;99.90;;;;;;6186161;23;20736;-93
2021/01/01 04:10:11;;;;;;;8.82;5.40;;;2.20;99.90;;;;;;6186038;23;20064;-92
2021/01/01 04:12:41;;;;;;;;;;;2.20;99.90;;;;;;6186639;23;20055;-92
2021/01/01 04:15:10;;;;;;;7.65;5.38;;;2.20;99.90;;;;;;6185857;23;19943;-92
2021/01/01 04:17:37;;;;;;;6.68;5.32;;;2.10;99.90;;;;;;6185558;23;20017;-93
2021/01/01 04:20:06;;;;;;;8.18;4.65;;;2.10;99.90;;;;;;6186108;23;20445;-92
2021/01/01 04:22:33;;;;;;;7.70;4.93;;;2.10;99.90;;;;;;6186095;23;20136;-92
2021/01/01 04:25:00;;;;;;;7.97;5.07;;;2.10;99.90;;;;;;6185706;23;20017;-92
2021/01/01 04:27:28;;;;;;;6.90;4.97;;;2.10;99.90;;;;;;6186295;23;20068;-95
2021/01/01 04:29:55;;;;;;;7.75;4.82;;;2.10;99.90;;;;;;6185788;23;20124;-92
2021/01/01 04:32:23;;;;;;;8.20;5.43;;;2.10;99.90;;;;;;6185678;23;20021;-92
2021/01/01 04:34:50;;;;;;;8.27;5.50;;;2.10;99.90;;;;;;6185904;23;20017;-92
2021/01/01 04:37:18;;;;;;;7.50;5.22;;;2.10;99.90;;;;;;6185288;23;20067;-92
2021/01/01 04:39:46;;;;;;;6.88;5.35;;;2.00;99.90;;;;;;6186272;23;20023;-92
2021/01/01 04:42:19;;;;;;;6.43;4.55;;;2.00;99.90;;;;;;6185105;23;20025;-91
2021/01/01 04:44:46;;;;;;;8.93;4.78;;;2.00;99.90;;;;;;6186099;23;20013;-92
2021/01/01 04:47:15;;;;;;;7.93;4.97;;;2.00;99.90;;;;;;6185786;23;20432;-92
2021/01/01 04:49:44;;;;;;;8.77;5.07;;;2.00;99.90;;;;;;6185357;23;20087;-92
2021/01/01 04:52:17;;;;;;;5.53;4.50;;;2.00;99.90;;;;;;6185961;23;20105;-91
2021/01/01 04:54:48;;;;;;;7.10;5.20;;;2.00;99.90;;;;;;6185982;23;20025;-92
2021/01/01 04:57:16;;;;;;;7.25;5.10;;;2.00;99.90;;;;;;6186018;23;20017;-92
2021/01/01 04:59:44;;;;;;;9.15;5.03;;;2.00;99.90;;;;;;6185745;23;20377;-92
2021/01/01 05:02:12;;;;;;;6.82;4.50;;;2.00;99.90;;;;;;6186880;23;20056;-92
2021/01/01 05:04:39;;;;;;;11.77;5.20;;;2.00;99.90;;;;;;6186839;23;20017;-93
2021/01/01 05:07:06;;;;;;;6.45;4.65;;;2.00;99.90;;;;;;6187183;23;20301;-92
2021/01/01 05:09:39;;;;;;;5.45;4.65;;;2.00;99.90;;;;;;6187338;23;20024;-92
2021/01/01 05:12:07;;;;;;;6.43;4.22;;;2.00;99.90;;;;;;6187225;23;20021;-92
2021/01/01 05:14:36;;;;;;;5.82;4.38;;;1.90;99.90;;;;;;6187113;23;20017;-92
2021/01/01 05:17:03;;;;;;;8.20;4.70;;;1.90;99.90;;;;;;6186911;23;20460;-92
2021/01/01 05:19:41;;;;;;;6.38;4.28;;;1.90;99.90;;;;;;6187380;23;20453;-93
2021/01/01 05:22:11;;;;;;;8.55;4.40;;;1.90;99.90;;;;;;6187007;23;20079;-92
2021/01/01 05:24:45;;;;;;;8.73;3.78;;;1.90;99.90;;;;;;6187393;23;20093;-93
2021/01/01 05:27:14;;;;;;;6.28;3.78;;;1.90;99.90;;;;;;6187169;23;20021;-92
2021/01/01 05:29:53;;;;;;;7.63;3.90;;;1.80;99.90;;;;;;6188333;23;20404;-92
2021/01/01 05:32:25;;;;;;;4.60;3.20;;;1.80;99.90;;;;;;6188506;23;20072;-92
2021/01/01 05:34:53;;;;;;;5.43;3.55;;;1.80;99.90;;;;;;6188539;23;20024;-92
2021/01/01 05:37:31;;;;;;;7.45;3.65;;;1.80;99.90;;;;;;6188009;23;20025;-92
2021/01/01 05:40:18;;;;;;;4.93;3.30;;;1.80;99.90;;;;;;6188440;23;20024;-91
2021/01/01 05:42:49;;;;;;;7.65;4.00;;;1.80;99.90;;;;;;6186819;23;20020;-91
2021/01/01 05:45:21;;;;;;;5.90;3.88;;;1.80;99.90;;;;;;6187746;23;20023;-92
2021/01/01 05:48:06;;;;;;;6.30;4.00;;;1.80;99.90;;;;;;6187415;23;20418;-92
2021/01/01 05:50:36;;;;;;;5.95;3.70;;;1.80;99.90;;;;;;6187460;23;20019;-92
2021/01/01 05:53:15;;;;;;;5.25;3.80;;;1.80;99.90;;;;;;6187600;23;20045;-92
2021/01/01 05:55:43;;;;;;;4.80;3.40;;;1.80;99.90;;;;;;6187599;23;20017;-93
2021/01/01 05:58:23;;;;;;;4.30;3.55;;;1.80;99.90;;;;;;6187712;23;20079;-95
2021/01/01 06:00:56;;;;;;;4.43;3.67;;;1.80;99.90;;;;;;6186894;23;20047;-92
2021/01/01 06:03:28;;;;;;;4.65;3.28;;;1.70;99.90;;;;;;6163884;23;20068;-92
2021/01/01 06:05:58;;;;;;;4.68;3.72;;;1.70;99.90;;;;;;6162449;23;20385;-92
2021/01/01 06:08:29;;;;;;;5.18;3.30;;;1.70;99.90;;;;;;6162927;23;20021;-93
2021/01/01 06:11:06;;;;;;;5.40;3.50;;;1.70;99.90;;;;;;6164132;23;20017;-92
2021/01/01 06:13:35;;;;;;;5.18;3.80;;;1.70;99.90;;;;;;6164355;23;20031;-91
2021/01/01 06:16:04;;;;;;;4.88;3.78;;;1.70;99.90;;;;;;6163869;23;20017;-92
2021/01/01 06:18:33;;;;;;;6.22;3.30;;;1.70;99.90;;;;;;6165551;23;20519;-92
2021/01/01 06:21:08;;;;;;;4.38;3.97;;;1.70;99.90;;;;;;6164970;23;20017;-92
2021/01/01 06:23:40;;;;;;;6.63;3.40;;;1.70;99.90;;;;;;6163993;23;20017;-92
2021/01/01 06:26:12;;;;;;;8.60;3.40;;;1.70;99.90;;;;;;6163399;23;20337;-92
2021/01/01 06:28:44;;;;;;;3.60;3.30;;;1.60;99.90;;;;;;6163629;23;20096;-92
2021/01/01 06:31:13;;;;;;;4.03;3.63;;;1.70;99.90;;;;;;6163275;23;20017;-92
2021/01/01 06:33:44;;;;;;;5.32;3.67;;;1.60;99.90;;;;;;6163859;23;20017;-92
2021/01/01 06:36:37;;;;;;;6.65;3.60;;;1.70;99.90;;;;;;6163405;23;20091;-93
2021/01/01 06:39:05;;;;;;;4.43;3.38;;;1.60;99.90;;;;;;6163168;23;20013;-92
2021/01/01 06:41:46;;;;;;;5.78;3.05;;;1.60;99.90;;;;;;6162143;23;20369;-92
2021/01/01 06:44:42;;;;;;;4.13;3.55;;;1.70;99.90;;;;;;6162794;23;20020;-92
2021/01/01 06:47:51;;;;;;;5.10;3.55;;;1.60;99.90;;;;;;6161333;23;20071;-92
2021/01/01 06:50:28;;;;;;;4.22;3.35;;;1.60;99.90;;;;;;6162542;23;20088;-92
2021/01/01 06:53:09;;;;;;;3.70;3.07;;;1.60;99.90;;;;;;6162717;23;20021;-92
2021/01/01 06:55:43;;;;;;;4.10;3.70;;;1.60;99.90;;;;;;6163102;23;20083;-95
2021/01/01 06:58:12;;;;;;;8.55;3.63;;;1.60;99.90;;;;;;6163339;23;20020;-92
2021/01/01 07:00:49;;;;;;;4.63;3.63;;;1.60;99.90;;;;;;6163217;23;20087;-93
2021/01/01 07:03:29;;;;;;;4.45;3.47;;;1.60;99.90;;;;;;6162745;23;20017;-91
2021/01/01 07:06:17;;;;;;;5.63;3.50;;;1.60;99.90;;;;;;6162185;23;20021;-92
2021/01/01 07:08:45;;;;;;;5.68;3.33;;;1.60;99.90;;;;;;6162176;23;20025;-92
2021/01/01 07:11:22;;;;;;;3.63;3.00;;;1.60;99.90;;;;;;6162496;23;20017;-93
2021/01/01 07:14:09;;;;;;;3.88;3.47;;;1.50;99.90;;;;;;6162573;23;20040;-93
2021/01/01 07:16:50;;;;;;;5.60;3.35;;;1.50;99.90;;;;;;6162735;23;20373;-92
2021/01/01 07:19:18;;;;;;;5.30;3.40;;;1.50;99.90;;;;;;6161650;23;20017;-92
2021/01/01 07:21:45;;;;;;;4.33;3.20;;;1.50;99.90;;;;;;6162357;23;20017;-92
2021/01/01 07:24:12;;;;;;;3.35;3.00;;;1.50;99.90;;;;;;6162293;23;20021;-91
2021/01/01 07:26:43;;;;;;;4.68;3.40;;;1.50;99.90;;;;;;6162262;23;20024;-92
2021/01/01 07:29:13;;;;;;;4.13;3.00;;;1.50;99.90;;;;;;6161913;23;20013;-92
2021/01/01 07:31:47;;;;;;;4.90;2.80;;;1.50;99.90;;;;;;6167118;23;20021;-92
2021/01/01 07:34:16;;;;;;;5.15;3.20;;;1.50;99.90;;;;;;6165732;23;20302;-92
2021/01/01 07:36:43;;;;;;;5.65;2.85;;;1.50;99.90;;;;;;6164634;23;20017;-91
2021/01/01 07:39:11;;;;;;;3.55;3.15;;;1.50;99.90;;;;;;6163996;23;20373;-94
2021/01/01 07:41:39;;;;;;;3.92;2.90;;;1.50;99.90;;;;;;6163126;23;20039;-93
2021/01/01 07:44:06;;;;;;;5.50;2.70;;;1.40;99.90;;;;;;6163258;23;20032;-92
2021/01/01 07:46:36;;;;;;;4.82;3.05;;;1.40;99.90;;;;;;6163600;23;20017;-92
2021/01/01 07:49:04;;;;;;;4.63;3.42;;;1.40;99.90;;;;;;6162758;23;20021;-92
2021/01/01 07:51:32;;;;;;;3.33;3.00;;;1.40;99.90;;;;;;6163069;23;20096;-92
2021/01/01 07:54:13;;;;;;;5.38;2.67;;;1.50;99.90;;;;;;6165740;23;20260;-93
2021/01/01 07:56:42;;;;;;;;;;;1.50;99.90;;;;;;6162547;23;20441;-92
2021/01/01 07:59:09;;;;;;;3.60;2.70;;;1.50;99.90;;;;;;6161947;23;20032;-92
2021/01/01 08:01:36;;;;;;;3.17;2.50;;;1.50;99.90;;;;;;6167688;23;20025;-92
2021/01/01 08:04:12;;;;;;;4.20;2.85;;;1.50;99.90;;;;;;6186722;23;20123;-92
2021/01/01 08:06:40;;;;;;;4.90;2.67;;;1.50;99.90;;;;;;6186955;23;20013;-92
2021/01/01 08:09:08;;;;;;;3.80;2.90;;;1.50;99.90;;;;;;6187116;23;20021;-92
2021/01/01 08:11:36;;;;;;;4.93;2.63;;;1.50;99.90;;;;;;6186834;23;20092;-92
2021/01/01 08:14:03;;;;;;;4.93;3.60;;;1.50;99.90;;;;;;6185742;23;20036;-92
2021/01/01 08:16:31;;;;;;;4.18;2.60;;;1.50;99.90;;;;;;6186771;23;20040;-92
2021/01/01 08:18:59;;;;;;;2.80;2.40;;;1.50;99.90;;;;;;6186962;23;20013;-92
2021/01/01 08:21:26;;;;;;;3.28;2.42;;;1.50;99.90;;;;;;6186766;23;20104;-92
2021/01/01 08:24:07;;;;;;;2.72;2.30;;;1.50;99.90;;;;;;6186854;23;20021;-91
2021/01/01 08:26:37;;;;;;;3.42;2.63;;;1.50;99.90;;;;;;6185838;23;20035;-92
2021/01/01 08:29:10;;;;;;;4.47;2.80;;;1.50;99.90;;;;;;6186100;23;20028;-92
2021/01/01 08:31:38;;;;;;;4.47;2.55;;;1.50;99.90;;;;;;6186058;23;20019;-92
2021/01/01 08:34:06;;;;;;;2.40;2.20;;;1.60;99.90;;;;;;6190471;23;20108;-92
2021/01/01 08:36:40;;;;;;;3.25;2.50;;;1.60;99.90;;;;;;6187659;23;20087;-96
2021/01/01 08:39:17;;;;;;;3.53;2.15;;;1.60;99.90;;;;;;6185028;23;20449;-92
2021/01/01 08:41:49;;;;;;;4.97;2.20;;;1.60;99.90;;;;;;6182895;23;20076;-93
2021/01/01 08:44:17;;;;;;;3.17;2.30;;;1.70;99.90;;;;;;6183378;23;20014;-92
2021/01/01 08:46:44;;;;;;;3.67;2.17;;;1.70;99.90;;;;;;6184040;23;20017;-92
2021/01/01 08:49:19;;;;;;;2.63;2.00;;;1.70;99.90;;;;;;6183148;23;20032;-92
2021/01/01 08:51:49;;;;;;;2.25;2.03;;;1.80;99.90;;;;;;6184011;23;20013;-91
2021/01/01 08:54:35;;;;;;;4.75;2.03;;;1.80;99.90;;;;;;6185614;23;20032;-92
2021/01/01 08:57:05;;;;;;;3.07;2.30;;;1.90;99.90;;;;;;6185604;23;20748;-93
2021/01/01 08:59:32;;;;;;;2.97;2.30;;;1.90;99.90;;;;;;6186379;23;20036;-92
2021/01/01 09:02:00;;;;;;;2.33;1.85;;;2.00;99.90;;;;;;6185848;23;20025;-91
2021/01/01 09:04:29;;;;;;;2.85;2.22;;;2.00;99.90;;;;;;6186746;23;20100;-92
2021/01/01 09:06:57;;;;;;;;;;;2.00;99.90;;;;;;6187523;23;20013;-91
2021/01/01 09:09:30;;;;;;;4.68;2.40;;;2.10;99.90;;;;;;6187126;23;20223;-91
2021/01/01 09:12:16;;;;;;;3.08;2.55;;;2.10;99.90;;;;;;6185354;23;20417;-92
2021/01/01 09:14:51;;;;;;;3.08;2.20;;;2.20;99.90;;;;;;6187112;23;20453;-91
2021/01/01 09:17:25;;;;;;;3.17;2.00;;;2.20;99.90;;;;;;6186084;23;20021;-92
2021/01/01 09:20:02;;;;;;;3.78;2.30;;;2.30;99.90;;;;;;6185592;23;20017;-92
2021/01/01 09:22:34;;;;;;;3.55;2.45;;;2.30;99.90;;;;;;6185665;23;20021;-91
2021/01/01 09:25:24;;;;;;;2.72;1.80;;;2.40;99.90;;;;;;6185797;23;20072;-91
2021/01/01 09:27:53;;;;;;;3.40;2.05;;;2.40;99.90;;;;;;6185923;23;20429;-93
2021/01/01 09:30:25;;;;;;;2.60;2.05;;;2.50;99.90;;;;;;6185869;23;20020;-94
2021/01/01 09:32:57;;;;;;;2.50;1.88;;;2.60;99.90;;;;;;6185513;23;20029;-92
2021/01/01 09:35:27;;;;;;;3.15;1.70;;;2.60;99.90;;;;;;6186772;23;20013;-92
2021/01/01 09:38:03;;;;;;;2.17;1.55;;;2.70;99.90;;;;;;6185595;23;20013;-93
2021/01/01 09:40:34;;;;;;;4.18;1.52;;;2.70;99.90;;;;;;6184193;23;20020;-92
2021/01/01 09:43:05;;;;;;;3.35;1.60;;;2.80;99.90;;;;;;6185103;23;20037;-92
2021/01/01 09:45:36;;;;;;;3.08;1.55;;;2.90;99.90;;;;;;6185880;23;20095;-92
2021/01/01 09:48:05;;;;;;;4.57;1.58;;;3.00;99.90;;;;;;6184926;23;20444;-91
2021/01/01 09:50:33;;;;;;;1.67;1.30;;;3.00;99.90;;;;;;6184300;23;20037;-92
2021/01/01 09:53:01;;;;;;;2.20;1.52;;;3.10;99.90;;;;;;6185385;23;20032;-92
2021/01/01 09:55:29;;;;;;;;;;;3.20;99.90;;;;;;6184753;23;20087;-92
2021/01/01 09:57:59;;;;;;;7.13;1.60;;;3.20;99.90;;;;;;6184349;23;20343;-92
2021/01/01 10:00:46;;;;;;;3.20;1.60;;;3.30;99.90;;;;;;6185069;23;20020;-91
2021/01/01 10:03:16;;;;;;;2.30;1.52;;;3.40;99.90;;;;;;6160764;23;20060;-92
2021/01/01 10:05:47;;;;;;;2.25;1.40;;;3.40;99.90;;;;;;6159870;23;20017;-92
2021/01/01 10:08:15;;;;;;;3.53;1.80;;;3.40;99.90;;;;;;6159279;23;20047;-93
2021/01/01 10:10:47;;;;;;;1.63;1.35;;;3.50;99.90;;;;;;6159448;23;20025;-92
2021/01/01 10:13:14;;;;;;;2.08;1.50;;;3.50;99.90;;;;;;6162534;23;20025;-92
2021/01/01 10:15:42;;;;;;;1.70;1.60;;;3.60;99.90;;;;;;6163000;23;20040;-92
2021/01/01 10:18:09;;;;;;;3.47;1.40;;;3.60;99.90;;;;;;6163295;23;20027;-92
2021/01/01 10:20:37;;;;;;;2.13;1.60;;;3.70;99.90;;;;;;6158614;23;20021;-94
2021/01/01 10:23:03;;;;;;;3.17;1.23;;;3.70;99.90;;;;;;6156827;23;20420;-93
2021/01/01 10:25:30;;;;;;;1.92;1.17;;;3.80;99.90;;;;;;6159023;23;20091;-92
2021/01/01 10:27:57;;;;;;;6.55;1.58;;;3.80;99.90;;;;;;6159033;23;20021;-93
2021/01/01 10:30:25;;;;;;;3.42;1.33;;;3.90;99.90;;;;;;6161296;23;20035;-93
2021/01/01 10:32:55;;;;;;;1.20;1.10;;;4.00;99.90;;;;;;6161840;23;20028;-92
2021/01/01 10:35:23;;;;;;;1.52;1.00;;;4.00;99.90;;;;;;6161173;23;20496;-92
2021/01/01 10:37:52;;;;;;;1.83;1.40;;;4.10;99.90;;;;;;6162839;23;20021;-93
2021/01/01 10:40:20;;;;;;;1.58;1.10;;;4.20;99.90;;;;;;6158905;23;20045;-94
2021/01/01 10:42:48;;;;;;;2.42;1.10;;;4.20;99.90;;;;;;6160497;23;20333;-93
2021/01/01 10:45:28;;;;;;;1.27;0.80;;;4.30;99.90;;;;;;6162863;23;20488;-93
2021/01/01 10:47:57;;;;;;;1.35;0.90;;;4.30;99.90;;;;;;6160123;23;20097;-93
2021/01/01 10:50:24;;;;;;;1.77;1.10;;;4.40;99.90;;;;;;6159353;23;20017;-94
2021/01/01 10:52:51;;;;;;;3.20;0.90;;;4.40;99.90;;;;;;6159591;23;20017;-93
2021/01/01 10:55:21;;;;;;;0.93;0.93;;;4.50;99.90;;;;;;6158619;23;20445;-93
2021/01/01 10:57:48;;;;;;;2.28;1.30;;;4.50;99.90;;;;;;6158335;23;20021;-93
2021/01/01 11:00:16;;;;;;;2.13;1.20;;;4.60;99.90;;;;;;6159183;23;20017;-93
2021/01/01 11:02:43;;;;;;;0.82;0.70;;;4.70;99.90;;;;;;6178092;23;20327;-93
2021/01/01 11:05:11;;;;;;;2.47;0.90;;;4.70;99.90;;;;;;6184112;23;20021;-93
2021/01/01 11:07:40;;;;;;;0.80;0.80;;;4.70;99.90;;;;;;6185557;23;20017;-93
2021/01/01 11:10:08;;;;;;;1.25;0.80;;;4.70;99.90;;;;;;6183681;23;20021;-92
2021/01/01 11:12:39;;;;;;;2.97;1.00;;;4.70;99.90;;;;;;6183569;23;20025;-93
2021/01/01 12:23:38;;;;;;;3.10;1.50;;;5.60;99.90;;;;;;6184809;23;20028;-94
2021/01/01 12:26:06;;;;;;;1.85;1.30;;;5.70;99.90;;;;;;6157740;23;20023;-94
2021/01/01 12:28:36;;;;;;;2.00;1.30;;;5.70;99.90;;;;;;6158966;23;20021;-94
2021/01/01 12:31:05;;;;;;;3.25;1.20;;;5.70;99.90;;;;;;6161899;23;20433;-95
2021/01/01 12:33:35;;;;;;;3.22;1.40;;;5.70;99.90;;;;;;6160994;23;20021;-95
2021/01/01 12:36:05;;;;;;;3.25;1.35;;;5.70;99.90;;;;;;6160647;23;20080;-95
2021/01/01 12:38:34;;;;;;;1.27;1.00;;;5.70;99.90;;;;;;6163724;23;20017;-94
2021/01/01 12:41:04;;;;;;;2.15;1.23;;;5.70;99.90;;;;;;6162845;23;20017;-96
2021/01/01 12:43:32;;;;;;;2.70;1.40;;;5.70;99.90;;;;;;6162938;23;20035;-95
2021/01/01 12:46:01;;;;;;;5.65;3.70;;;5.70;99.90;;;;;;6163353;23;20103;-95
2021/01/01 12:48:30;;;;;;;5.43;4.93;;;5.70;99.90;;;;;;6164804;23;20075;-95
2021/01/01 12:50:58;;;;;;;3.35;2.70;;;5.70;99.90;;;;;;6164944;23;20017;-92
2021/01/01 12:53:25;;;;;;;32.38;17.60;;;5.70;99.90;;;;;;6163116;23;20017;-92
2021/01/01 12:55:53;;;;;;;19.30;8.68;;;5.80;99.90;;;;;;6162264;23;20037;-95
2021/01/01 12:58:21;;;;;;;9.07;4.80;;;5.80;99.90;;;;;;6162028;23;20021;-92
2021/01/01 13:00:50;;;;;;;22.25;7.13;;;5.80;99.90;;;;;;6162377;23;20021;-89
2021/01/01 13:03:18;;;;;;;10.45;4.97;;;5.90;99.90;;;;;;6160999;23;20044;-91
2021/01/01 13:05:46;;;;;;;3.22;1.60;;;5.90;99.90;;;;;;6162065;23;20040;-92
2021/01/01 13:08:28;;;;;;;2.33;1.55;;;5.90;99.90;;;;;;6183176;23;20087;-96
2021/01/01 13:10:56;;;;;;;3.08;1.50;;;5.90;99.90;;;;;;6186535;23;20017;-96
2021/01/01 13:13:25;;;;;;;2.00;1.45;;;5.90;99.90;;;;;;6187008;23;20061;-96
2021/01/01 13:15:53;;;;;;;3.25;1.40;;;5.90;99.90;;;;;;6186489;23;20014;-96
2021/01/01 13:18:24;;;;;;;2.60;1.67;;;5.90;99.90;;;;;;6186323;23;20455;-96
2021/01/01 13:20:55;;;;;;;3.50;1.40;;;6.00;99.90;;;;;;6185976;23;20025;-96
2021/01/01 13:23:24;;;;;;;2.60;1.50;;;5.90;99.90;;;;;;6185976;23;20044;-96
2021/01/01 13:25:54;;;;;;;4.90;1.70;;;6.00;99.90;;;;;;6186257;23;20093;-96
2021/01/01 13:28:23;;;;;;;2.78;1.30;;;6.00;99.90;;;;;;6187223;23;20028;-96
2021/01/01 13:30:51;;;;;;;2.45;1.25;;;6.00;99.90;;;;;;6185970;23;20016;-96
2021/01/01 13:33:21;;;;;;;3.20;1.27;;;5.90;99.90;;;;;;6186799;23;20016;-96
2021/01/01 13:35:51;;;;;;;2.75;1.30;;;6.00;99.90;;;;;;6186579;23;20017;-96
2021/01/01 13:38:21;;;;;;;3.63;1.38;;;6.00;99.90;;;;;;6186665;23;20032;-96
2021/01/01 13:40:50;;;;;;;1.48;1.20;;;6.00;99.90;;;;;;6187795;23;20018;-96
2021/01/01 13:43:31;;;;;;;2.53;1.30;;;6.00;99.90;;;;;;6186329;23;20075;-96
2021/01/01 13:46:05;;;;;;;3.50;1.40;;;6.00;99.90;;;;;;6185786;23;20021;-96
2021/01/01 13:48:33;;;;;;;2.23;1.37;;;6.00;99.90;;;;;;6186686;23;20024;-96
2021/01/01 13:51:05;;;;;;;2.67;1.42;;;6.10;99.90;;;;;;6187749;23;20016;-96
2021/01/01 13:53:33;;;;;;;3.17;1.60;;;6.00;99.90;;;;;;6187267;23;20021;-95
2021/01/01 13:56:56;;;;;;;1.98;1.38;;;6.00;99.90;;;;;;6188735;23;20013;-96
2021/01/01 13:59:26;;;;;;;3.88;1.60;;;6.10;99.90;;;;;;6192520;23;20017;-93
2021/01/01 14:01:59;;;;;;;7.97;3.70;;;6.10;99.90;;;;;;6192439;23;20059;-96
2021/01/01 14:04:52;;;;;;;5.28;2.75;;;6.10;99.90;;;;;;6189680;23;20091;-96
2021/01/01 14:07:25;;;;;;;5.22;3.88;;;6.10;99.90;;;;;;6189619;23;20048;-96
2021/01/01 14:09:59;;;;;;;5.03;3.17;;;6.20;99.90;;;;;;6190996;23;20059;-96
2021/01/01 14:12:51;;;;;;;2.55;1.48;;;6.20;99.90;;;;;;6191184;23;20013;-96
2021/01/01 14:15:59;;;;;;;4.15;2.05;;;6.20;99.90;;;;;;6193870;23;20032;-96
2021/01/01 14:18:31;;;;;;;1.70;1.20;;;6.20;99.90;;;;;;6188434;23;20024;-86
2021/01/01 14:42:48;;;;;;;2.65;1.60;;;5.90;99.90;;;;;;6167903;23;20016;-95
2021/01/01 14:45:17;;;;;;;2.15;1.65;;;5.80;99.90;;;;;;6161976;23;20020;-94
2021/01/01 14:47:48;;;;;;;1.67;1.23;;;5.80;99.90;;;;;;6160755;23;20020;-95